Time;durP1;ratioP1;P1;durP2;ratioP2;P2;SDS_P1;SDS_P2;PMS_P1;PMS_P2;Temp;Humidity;BMP_temperature;BMP_pressure;BME280_temperature;BME280_humidity;BME280_pressure;Samples;Min_cycle;Max_cycle;Signal;HPM_P1;HPM_P2
2023/08/25 00:02:24;;;;;;;16.40;10.48;;;;;;;20.80;84.48;94635.47;4992315;28;20296;-78
2023/08/25 00:04:51;;;;;;;15.23;10.52;;;;;;;20.77;85.44;94638.25;4992097;28;20212;-78
2023/08/25 00:07:19;;;;;;;19.42;11.75;;;;;;;20.75;84.88;94635.09;4992005;28;20209;-78
2023/08/25 00:09:46;;;;;;;15.77;10.75;;;;;;;20.78;84.55;94634.28;4992366;28;20665;-78
2023/08/25 00:12:13;;;;;;;18.23;11.05;;;;;;;20.75;85.33;94633.13;4991871;28;20233;-77
2023/08/25 00:14:40;;;;;;;18.92;11.38;;;;;;;20.73;85.02;94638.22;4991835;28;20237;-78
2023/08/25 00:17:08;;;;;;;17.58;10.57;;;;;;;20.74;85.34;94639.81;4991993;28;20209;-78
2023/08/25 00:19:35;;;;;;;15.10;10.98;;;;;;;20.69;85.64;94640.19;4992274;28;20229;-78
2023/08/25 00:22:02;;;;;;;18.05;10.90;;;;;;;20.64;86.29;94632.31;4992175;28;20213;-78
2023/08/25 00:24:32;;;;;;;16.80;11.02;;;;;;;20.64;86.59;94628.78;4992064;28;20270;-78
2023/08/25 00:26:59;;;;;;;18.25;11.52;;;;;;;20.58;87.01;94637.44;4991349;28;20606;-77
2023/08/25 00:29:26;;;;;;;16.85;10.63;;;;;;;20.61;86.64;94635.06;4991557;28;20221;-78
2023/08/25 00:31:52;;;;;;;18.55;11.25;;;;;;;20.51;87.10;94631.09;4991549;28;20213;-78
2023/08/25 00:34:19;;;;;;;19.90;10.50;;;;;;;20.46;86.79;94642.53;4991859;28;20236;-78
2023/08/25 00:36:46;;;;;;;16.65;10.43;;;;;;;20.49;86.16;94639.78;4985731;28;20557;-78
2023/08/25 00:39:13;;;;;;;17.02;12.20;;;;;;;20.48;85.94;94638.22;4991753;28;20214;-78
2023/08/25 00:41:42;;;;;;;16.15;10.52;;;;;;;20.58;85.49;94642.94;4991472;28;20198;-78
2023/08/25 00:44:08;;;;;;;16.25;10.80;;;;;;;20.55;85.85;94643.72;4991700;28;20209;-78
2023/08/25 00:46:36;;;;;;;17.33;10.75;;;;;;;20.48;85.94;94646.47;4991933;28;20625;-78
2023/08/25 00:49:03;;;;;;;17.90;11.15;;;;;;;20.36;87.67;94641.31;4991330;28;20630;-78
2023/08/25 00:51:30;;;;;;;14.60;10.48;;;;;;;20.40;86.60;94644.84;4979330;28;20297;-78
2023/08/25 00:53:57;;;;;;;14.30;10.65;;;;;;;20.39;86.81;94640.53;4990902;28;20283;-78
2023/08/25 00:56:25;;;;;;;17.52;11.48;;;;;;;20.49;87.36;94639.00;4991535;28;20213;-78
2023/08/25 00:58:54;;;;;;;16.80;10.80;;;;;;;20.55;87.42;94638.19;4990840;28;20220;-78
2023/08/25 01:01:21;;;;;;;16.30;11.82;;;;;;;20.56;88.27;94645.28;4991559;28;20561;-78
2023/08/25 01:03:48;;;;;;;16.20;10.98;;;;;;;20.52;88.24;94644.47;4990634;28;20204;-78
2023/08/25 01:06:15;;;;;;;19.88;12.15;;;;;;;20.45;88.57;94644.47;4991433;28;20625;-76
2023/08/25 01:08:43;;;;;;;19.67;11.43;;;;;;;20.38;88.30;94649.94;4990337;28;20232;-76
2023/08/25 01:11:28;;;;;;;16.60;11.63;;;;;;;20.33;87.92;94652.28;4990900;28;20234;-76
2023/08/25 01:14:06;;;;;;;14.38;10.52;;;;;;;20.37;88.01;94645.63;4990412;28;20249;-76
2023/08/25 01:16:37;;;;;;;18.27;11.52;;;;;;;20.31;87.55;94643.63;4991166;28;20220;-77
2023/08/25 01:19:11;;;;;;;15.90;10.32;;;;;;;20.36;87.12;94649.59;4990772;28;20651;-76
2023/08/25 01:21:46;;;;;;;24.00;11.57;;;;;;;20.40;86.98;94642.09;4987094;28;20279;-76
2023/08/25 01:24:21;;;;;;;16.20;10.93;;;;;;;20.36;86.96;94641.31;4990475;28;20208;-77
2023/08/25 01:26:50;;;;;;;16.20;11.73;;;;;;;20.36;86.82;94641.31;4990676;28;20212;-77
2023/08/25 01:29:17;;;;;;;18.10;10.52;;;;;;;20.38;87.22;94638.16;4990442;28;20213;-77
2023/08/25 01:31:44;;;;;;;17.35;11.73;;;;;;;20.26;87.49;94636.53;4990347;28;20662;-76
2023/08/25 01:34:13;;;;;;;16.88;11.43;;;;;;;20.27;86.82;94632.59;4990427;28;20230;-76
2023/08/25 01:36:47;;;;;;;16.10;11.18;;;;;;;20.22;88.17;94638.50;4990675;28;20312;-76
2023/08/25 01:39:16;;;;;;;17.67;12.68;;;;;;;20.24;88.29;94645.16;4990470;28;20689;-77
2023/08/25 01:41:46;;;;;;;15.48;10.55;;;;;;;20.20;88.13;94644.41;4990421;28;20217;-77
2023/08/25 01:44:16;;;;;;;20.33;11.02;;;;;;;20.16;88.04;94631.78;4990505;28;20221;-78
2023/08/25 01:46:44;;;;;;;16.35;10.18;;;;;;;19.68;89.89;94640.22;4990428;28;20218;-76
2023/08/25 01:49:14;;;;;;;21.58;12.02;;;;;;;19.90;91.22;94629.34;4990374;28;20224;-76
2023/08/25 01:51:42;;;;;;;15.50;10.65;;;;;;;19.96;89.79;94633.28;4990526;28;20206;-76
2023/08/25 01:54:09;;;;;;;18.33;10.32;;;;;;;19.95;89.76;94628.97;4990316;28;20234;-76
2023/08/25 01:56:36;;;;;;;16.63;10.95;;;;;;;19.97;89.43;94632.09;4990394;28;20217;-77
2023/08/25 01:59:03;;;;;;;16.95;11.18;;;;;;;19.99;88.75;94632.50;4990152;28;20206;-76
2023/08/25 02:01:31;;;;;;;14.10;10.27;;;;;;;20.03;88.29;94638.81;4990618;28;20209;-77
2023/08/25 02:03:58;;;;;;;16.75;11.00;;;;;;;20.06;88.40;94625.09;4990537;28;20862;-77
2023/08/25 02:06:25;;;;;;;18.00;10.95;;;;;;;20.10;87.31;94625.09;4990594;28;20268;-77
2023/08/25 02:08:52;;;;;;;15.60;11.25;;;;;;;20.04;88.40;94623.91;4990020;28;20253;-76
2023/08/25 02:11:19;;;;;;;17.83;11.55;;;;;;;19.94;90.63;94619.16;4989781;28;20213;-76
2023/08/25 02:13:46;;;;;;;18.13;12.05;;;;;;;20.00;90.87;94625.84;4989589;28;20594;-76
2023/08/25 02:16:13;;;;;;;18.15;11.88;;;;;;;19.96;91.63;94627.78;4992885;28;20706;-76
2023/08/25 02:18:41;;;;;;;18.95;10.73;;;;;;;19.87;91.29;94637.19;4994001;28;20340;-77
2023/08/25 02:21:08;;;;;;;17.40;11.10;;;;;;;19.84;92.21;94637.94;4993664;28;20206;-76
2023/08/25 02:23:35;;;;;;;14.07;10.52;;;;;;;19.86;91.90;94637.56;4993750;28;20198;-77
2023/08/25 02:26:02;;;;;;;15.82;11.65;;;;;;;19.88;91.55;94638.75;4993871;28;20288;-76
2023/08/25 02:28:29;;;;;;;16.88;11.23;;;;;;;19.92;91.23;94633.28;4993925;28;20212;-77
2023/08/25 02:30:56;;;;;;;19.35;12.40;;;;;;;19.86;91.71;94641.09;4993658;28;20578;-77
2023/08/25 02:33:23;;;;;;;16.63;11.77;;;;;;;19.77;92.01;94642.66;4993496;28;20233;-76
2023/08/25 02:35:51;;;;;;;20.05;13.05;;;;;;;19.67;93.52;94646.94;4993763;28;20641;-76
2023/08/25 02:38:18;;;;;;;19.98;12.48;;;;;;;19.69;93.79;94641.00;4993477;28;20213;-76
2023/08/25 02:40:44;;;;;;;19.52;13.00;;;;;;;19.69;93.56;94647.31;4993569;28;20610;-76
2023/08/25 02:43:11;;;;;;;19.33;12.02;;;;;;;19.71;92.73;94644.16;4998381;28;20209;-77
2023/08/25 02:45:38;;;;;;;15.02;11.45;;;;;;;19.71;91.79;94650.47;4993515;28;20201;-78
2023/08/25 02:48:06;;;;;;;16.17;11.60;;;;;;;19.67;92.29;94655.16;4993387;28;20276;-77
2023/08/25 02:50:34;;;;;;;24.88;11.85;;;;;;;19.72;92.40;94643.78;4996075;28;20616;-78
2023/08/25 02:53:02;;;;;;;19.48;12.93;;;;;;;19.72;93.39;94646.53;5003292;28;20229;-76
2023/08/25 02:55:29;;;;;;;19.02;12.65;;;;;;;19.70;93.38;94643.38;5003035;28;20220;-76
2023/08/25 02:57:56;;;;;;;15.30;11.32;;;;;;;19.72;93.81;94651.25;4993070;28;20210;-76
2023/08/25 03:00:24;;;;;;;20.02;12.80;;;;;;;19.78;92.79;94657.97;4997098;28;20267;-76
2023/08/25 03:02:51;;;;;;;17.05;12.32;;;;;;;19.78;92.99;94656.00;4997381;28;20233;-76
2023/08/25 03:05:18;;;;;;;18.55;12.40;;;;;;;19.68;92.97;94662.22;4998200;28;20432;-78
2023/08/25 03:07:45;;;;;;;17.60;11.13;;;;;;;19.65;93.03;94660.25;5004670;28;20559;-78
2023/08/25 03:10:13;;;;;;;18.25;11.55;;;;;;;19.59;93.35;94661.78;5000850;28;20275;-77
2023/08/25 03:12:40;;;;;;;14.02;10.30;;;;;;;19.50;93.14;94662.13;4994280;28;20237;-76
2023/08/25 03:15:08;;;;;;;16.52;11.18;;;;;;;19.47;92.62;94667.56;4997538;28;20238;-77
2023/08/25 03:17:35;;;;;;;17.73;11.52;;;;;;;19.47;93.27;94667.56;4998320;28;20598;-78
2023/08/25 03:20:02;;;;;;;20.45;11.52;;;;;;;19.47;93.54;94678.56;4990989;28;20213;-78
2023/08/25 03:22:30;;;;;;;15.65;11.52;;;;;;;19.43;93.11;94678.53;4999953;28;20206;-76
2023/08/25 03:24:56;;;;;;;19.23;11.40;;;;;;;19.46;92.46;94683.28;4994195;28;20202;-77
2023/08/25 03:27:25;;;;;;;17.20;11.30;;;;;;;19.45;93.41;94676.19;4989564;28;20671;-78
2023/08/25 03:29:51;;;;;;;17.50;10.77;;;;;;;19.50;93.23;94672.34;4991065;28;20610;-79
2023/08/25 03:32:18;;;;;;;18.67;11.93;;;;;;;19.43;94.01;94683.25;4990764;28;20221;-77
2023/08/25 03:34:45;;;;;;;15.95;11.25;;;;;;;19.41;93.68;94680.88;4990916;28;20225;-78
2023/08/25 03:37:12;;;;;;;18.70;11.60;;;;;;;19.43;92.67;94689.53;4992723;28;20217;-78
2023/08/25 03:39:39;;;;;;;18.10;11.90;;;;;;;19.34;92.59;94682.78;4975020;28;20300;-77
2023/08/25 03:42:06;;;;;;;19.10;11.27;;;;;;;19.34;93.09;94678.09;4992204;28;20221;-76
2023/08/25 03:44:35;;;;;;;19.58;11.88;;;;;;;19.47;91.32;94673.84;4989570;28;20205;-76
2023/08/25 03:47:02;;;;;;;19.83;12.13;;;;;;;19.55;90.67;94680.19;4988246;28;20297;-76
2023/08/25 03:49:30;;;;;;;18.85;11.57;;;;;;;19.55;91.46;94669.22;4987134;28;20209;-77
2023/08/25 03:51:59;;;;;;;20.33;12.88;;;;;;;19.61;90.47;94673.19;4988159;28;20638;-78
2023/08/25 03:54:27;;;;;;;22.17;13.52;;;;;;;19.67;90.88;94666.16;4991973;28;20372;-76
2023/08/25 03:56:54;;;;;;;17.77;11.45;;;;;;;19.68;90.30;94662.22;4991992;28;20292;-76
2023/08/25 03:59:21;;;;;;;19.20;11.98;;;;;;;19.93;89.64;94678.88;4991420;28;20206;-77
2023/08/25 04:01:49;;;;;;;20.00;12.68;;;;;;;20.29;88.78;94674.28;4991234;28;20620;-76
2023/08/25 04:04:16;;;;;;;17.63;12.32;;;;;;;20.45;88.59;94688.50;4991978;28;20229;-75
2023/08/25 04:06:43;;;;;;;21.90;12.70;;;;;;;20.89;86.89;94684.66;4992151;28;20565;-75
2023/08/25 04:09:10;;;;;;;21.40;12.48;;;;;;;21.39;84.89;94681.94;4991953;28;20209;-76
2023/08/25 04:11:37;;;;;;;20.42;12.25;;;;;;;21.87;82.47;94688.53;4992531;28;20608;-76
2023/08/25 04:14:03;;;;;;;17.10;11.77;;;;;;;22.32;80.43;94678.56;4991199;28;20575;-76
2023/08/25 04:16:30;;;;;;;18.38;12.00;;;;;;;22.34;79.64;94676.19;4992199;28;20609;-77
2023/08/25 04:18:58;;;;;;;21.73;12.07;;;;;;;22.62;79.24;94693.81;4991021;28;20257;-76
2023/08/25 04:21:25;;;;;;;17.58;12.32;;;;;;;23.31;76.58;94682.69;4992135;28;20553;-77
2023/08/25 04:23:52;;;;;;;19.30;12.60;;;;;;;23.85;73.66;94685.78;4991136;28;20303;-77
2023/08/25 04:26:19;;;;;;;16.65;11.57;;;;;;;24.62;71.27;94666.66;4991290;28;20205;-77
2023/08/25 04:28:46;;;;;;;17.55;12.60;;;;;;;24.92;69.98;94674.16;4992062;28;20673;-76
2023/08/25 04:31:13;;;;;;;17.63;10.82;;;;;;;25.34;67.75;94677.50;4989884;28;20260;-76
2023/08/25 04:33:40;;;;;;;17.70;11.07;;;;;;;26.04;65.81;94672.72;4988596;28;20666;-76
2023/08/25 04:36:08;;;;;;;18.20;11.63;;;;;;;26.31;64.25;94672.63;4990655;28;20340;-77
2023/08/25 04:38:36;;;;;;;19.60;11.48;;;;;;;26.78;62.60;94678.78;4991564;28;20260;-77
2023/08/25 04:41:02;;;;;;;17.38;12.10;;;;;;;26.77;62.23;94681.97;4991805;28;20241;-77
2023/08/25 04:43:29;;;;;;;17.67;11.65;;;;;;;26.50;62.94;94687.72;4991532;28;20209;-77
2023/08/25 04:45:56;;;;;;;20.08;11.55;;;;;;;27.18;61.23;94695.38;4991371;28;20638;-77
2023/08/25 04:48:23;;;;;;;19.50;13.80;;;;;;;26.90;61.19;94703.13;4991858;28;20217;-77
2023/08/25 04:50:50;;;;;;;16.60;13.88;;;;;;;27.18;60.48;94696.16;4991186;28;20312;-77
2023/08/25 04:53:18;;;;;;;20.17;14.50;;;;;;;27.32;60.87;94700.63;4991313;28;20221;-78
2023/08/25 04:55:46;;;;;;;17.88;14.50;;;;;;;27.75;59.45;94705.13;4991848;28;20678;-77
2023/08/25 04:58:13;;;;;;;23.63;11.80;;;;;;;28.34;57.24;94712.38;4988068;28;20283;-78
2023/08/25 05:00:40;;;;;;;17.67;13.15;;;;;;;28.90;56.29;94712.78;4991287;28;20256;-78
2023/08/25 05:03:08;;;;;;;20.83;12.43;;;;;;;29.75;53.95;94712.13;4991582;28;20570;-78
2023/08/25 05:05:35;;;;;;;15.80;11.55;;;;;;;30.25;52.31;94712.03;4991594;28;20280;-78
2023/08/25 05:08:02;;;;;;;17.17;11.05;;;;;;;30.39;51.94;94711.53;4991340;28;20563;-77
2023/08/25 05:10:30;;;;;;;15.95;11.80;;;;;;;30.77;51.10;94712.59;4990976;28;20209;-78
2023/08/25 05:12:58;;;;;;;19.90;12.27;;;;;;;30.75;50.78;94701.88;4998482;28;20224;-77
2023/08/25 05:15:25;;;;;;;19.27;14.02;;;;;;;30.89;50.54;94712.50;4989368;28;20230;-77
2023/08/25 05:17:51;;;;;;;23.08;14.50;;;;;;;31.56;48.95;94711.94;4990975;28;20216;-78
2023/08/25 05:20:20;;;;;;;20.52;14.55;;;;;;;31.76;47.82;94709.53;4990922;28;20264;-77
2023/08/25 05:22:47;;;;;;;20.48;14.40;;;;;;;31.36;48.95;94725.53;4989539;28;20205;-78
2023/08/25 05:25:15;;;;;;;19.45;15.13;;;;;;;32.02;47.44;94726.09;4991313;28;20283;-79
2023/08/25 05:27:43;;;;;;;16.90;13.90;;;;;;;32.08;47.09;94721.44;4992567;28;20249;-80
2023/08/25 05:30:11;;;;;;;20.33;14.68;;;;;;;32.54;45.96;94732.69;4990119;28;20201;-76
2023/08/25 05:32:37;;;;;;;18.73;15.57;;;;;;;32.37;46.06;94732.25;4991104;28;20225;-76
2023/08/25 05:35:05;;;;;;;22.33;14.35;;;;;;;33.10;44.47;94730.16;4989637;28;20222;-77
2023/08/25 05:37:33;;;;;;;19.63;16.30;;;;;;;33.40;44.08;94730.41;4995196;28;20218;-78
2023/08/25 05:40:00;;;;;;;17.98;14.30;;;;;;;34.00;43.13;94721.88;4989664;28;20300;-78
2023/08/25 05:42:27;;;;;;;21.48;16.00;;;;;;;33.92;42.91;94720.69;4990749;28;20206;-77
2023/08/25 05:44:55;;;;;;;17.67;15.27;;;;;;;33.92;43.05;94725.50;4999330;28;20285;-78
2023/08/25 05:47:22;;;;;;;21.42;15.38;;;;;;;34.13;42.63;94721.66;4989368;28;20328;-78
2023/08/25 05:49:50;;;;;;;18.20;14.05;;;;;;;32.83;44.81;94721.78;4987815;28;20260;-78
2023/08/25 05:52:17;;;;;;;22.88;14.82;;;;;;;33.44;44.12;94711.38;4993995;28;20209;-77
2023/08/25 05:54:44;;;;;;;19.75;14.82;;;;;;;33.82;42.84;94705.91;4994537;28;20638;-78
2023/08/25 05:57:10;;;;;;;21.27;14.82;;;;;;;33.27;44.00;94712.97;4994321;28;20287;-78
2023/08/25 05:59:37;;;;;;;16.70;13.95;;;;;;;33.06;44.70;94712.72;4995110;28;20611;-78
2023/08/25 06:02:06;;;;;;;16.23;13.48;;;;;;;33.60;43.80;94716.63;4994951;28;20747;-78
2023/08/25 06:04:33;;;;;;;22.00;13.90;;;;;;;33.80;43.53;94714.03;4993523;28;20210;-77
2023/08/25 06:07:00;;;;;;;19.55;14.18;;;;;;;33.04;44.92;94720.06;4992391;28;20331;-77
2023/08/25 06:09:26;;;;;;;21.67;14.90;;;;;;;33.40;43.78;94705.91;4993684;28;20205;-78
2023/08/25 06:11:56;;;;;;;17.48;14.27;;;;;;;32.68;44.91;94704.00;4993116;28;20247;-76
2023/08/25 06:14:23;;;;;;;19.20;15.00;;;;;;;33.30;44.17;94706.44;4980548;28;20316;-78
2023/08/25 06:16:52;;;;;;;16.58;14.73;;;;;;;34.53;41.91;94702.31;4980093;28;20328;-77
2023/08/25 06:19:20;;;;;;;17.38;14.25;;;;;;;35.36;40.50;94693.06;4980520;28;20205;-76
2023/08/25 06:21:47;;;;;;;18.80;13.82;;;;;;;36.01;39.50;94696.63;4983798;28;20209;-77
2023/08/25 06:24:14;;;;;;;15.90;13.95;;;;;;;35.40;40.23;94694.41;4992838;28;20201;-77
2023/08/25 06:26:42;;;;;;;16.35;13.75;;;;;;;36.51;37.81;94686.78;4994211;28;20574;-77
2023/08/25 06:29:09;;;;;;;16.42;13.38;;;;;;;35.57;39.60;94687.00;4994353;28;20213;-78
2023/08/25 06:31:35;;;;;;;18.45;14.27;;;;;;;34.39;41.33;94700.22;4992926;28;20651;-78
2023/08/25 06:34:03;;;;;;;16.75;14.07;;;;;;;34.55;41.65;94688.53;4993611;28;20237;-78
2023/08/25 06:36:32;;;;;;;16.33;13.90;;;;;;;34.21;42.11;94691.91;4991275;28;20983;-78
2023/08/25 06:38:59;;;;;;;15.65;12.65;;;;;;;34.23;42.84;94695.00;4989688;28;20245;-77
2023/08/25 06:41:26;;;;;;;17.23;13.48;;;;;;;33.78;42.90;94688.41;4991135;28;20625;-77
2023/08/25 06:43:53;;;;;;;18.17;13.57;;;;;;;33.81;43.13;94693.09;4989020;28;20260;-78
2023/08/25 06:46:22;;;;;;;16.65;11.88;;;;;;;34.69;42.07;94694.66;4997837;28;20664;-78
2023/08/25 06:48:50;;;;;;;17.20;12.98;;;;;;;33.39;44.05;94700.75;4991857;28;20217;-77
2023/08/25 06:51:17;;;;;;;18.40;12.35;;;;;;;33.76;43.26;94690.94;4993689;28;20216;-77
2023/08/25 06:53:45;;;;;;;18.38;13.60;;;;;;;34.33;42.54;94699.34;4992584;28;20221;-77
2023/08/25 06:56:12;;;;;;;15.55;12.27;;;;;;;35.24;41.53;94692.88;4991936;28;20582;-77
2023/08/25 06:58:38;;;;;;;14.60;12.70;;;;;;;33.52;43.50;94692.91;4989935;28;20213;-76
2023/08/25 07:01:05;;;;;;;18.50;12.60;;;;;;;33.89;43.49;94697.09;4990446;28;20304;-77
2023/08/25 07:03:32;;;;;;;18.90;12.02;;;;;;;33.84;43.71;94697.78;4991804;28;20206;-77
2023/08/25 07:06:01;;;;;;;13.20;11.68;;;;;;;33.45;43.58;94699.66;4993492;28;20269;-78
2023/08/25 07:08:27;;;;;;;14.75;11.80;;;;;;;33.76;42.92;94701.41;4993275;28;20221;-77
2023/08/25 07:10:55;;;;;;;15.20;11.90;;;;;;;34.62;41.63;94703.47;4993333;28;20222;-78
2023/08/25 07:13:22;;;;;;;12.40;10.30;;;;;;;34.32;42.14;94692.16;4993195;28;20233;-77
2023/08/25 07:15:50;;;;;;;13.30;11.18;;;;;;;34.64;41.75;94695.34;4993017;28;20234;-77
2023/08/25 07:18:19;;;;;;;14.00;10.95;;;;;;;33.41;43.85;94703.88;4992933;28;20216;-76
2023/08/25 07:20:46;;;;;;;13.25;11.20;;;;;;;32.11;46.15;94706.50;4993179;28;20682;-76
2023/08/25 07:23:12;;;;;;;14.15;11.18;;;;;;;31.33;48.92;94704.06;4993275;28;20239;-75
2023/08/25 07:25:43;;;;;;;13.07;11.20;;;;;;;30.65;49.40;94705.81;4993378;28;20591;-77
2023/08/25 07:28:11;;;;;;;14.85;12.45;;;;;;;30.26;50.72;94713.59;5006683;28;20232;-77
2023/08/25 07:30:39;;;;;;;16.27;11.52;;;;;;;30.80;49.68;94714.47;4993223;28;20213;-78
2023/08/25 07:33:07;;;;;;;14.18;11.60;;;;;;;31.65;48.46;94709.19;4992833;28;20320;-76
2023/08/25 07:35:35;;;;;;;16.00;10.75;;;;;;;31.67;48.22;94717.91;4992569;28;20233;-77
2023/08/25 07:38:02;;;;;;;13.68;11.65;;;;;;;30.55;50.28;94721.00;4992949;28;20264;-76
2023/08/25 07:40:29;;;;;;;12.50;10.57;;;;;;;31.11;49.78;94720.13;4992746;28;20208;-76
2023/08/25 07:43:00;;;;;;;13.75;10.85;;;;;;;31.48;47.99;94721.06;4992124;28;20201;-76
2023/08/25 07:45:29;;;;;;;12.13;9.57;;;;;;;31.46;48.00;94718.72;4992361;28;20675;-76
2023/08/25 07:47:58;;;;;;;13.05;9.68;;;;;;;31.19;48.04;94715.81;4991928;28;20598;-76
2023/08/25 07:50:25;;;;;;;12.82;10.13;;;;;;;31.00;49.59;94715.69;4991716;28;20205;-76
2023/08/25 07:52:52;;;;;;;12.32;9.80;;;;;;;31.62;47.71;94721.28;4992227;28;20599;-76
2023/08/25 07:55:20;;;;;;;12.25;9.50;;;;;;;31.54;46.32;94722.03;4992084;28;20456;-79
2023/08/25 07:57:47;;;;;;;18.20;9.95;;;;;;;30.55;49.47;94723.78;4991839;28;20250;-78
2023/08/25 08:00:15;;;;;;;13.02;9.82;;;;;;;31.97;46.26;94712.69;4991949;28;20209;-77
2023/08/25 08:02:44;;;;;;;12.73;9.43;;;;;;;32.64;44.63;94711.81;4992379;28;20556;-77
2023/08/25 08:05:11;;;;;;;14.73;9.38;;;;;;;30.43;48.83;94721.81;4991802;28;20682;-76
2023/08/25 08:08:06;;;;;;;13.70;9.98;;;;;;;30.92;47.91;94724.81;4973737;28;20197;-77
2023/08/25 08:10:33;;;;;;;12.88;9.10;;;;;;;30.28;48.87;94716.72;4991530;28;20194;-76
2023/08/25 08:13:00;;;;;;;11.32;9.30;;;;;;;30.39;49.40;94717.09;4991075;28;20749;-77
2023/08/25 08:15:27;;;;;;;10.60;7.90;;;;;;;30.65;47.31;94717.81;4989684;28;20753;-77
2023/08/25 08:17:55;;;;;;;13.05;8.80;;;;;;;31.03;46.92;94709.16;4991785;28;20213;-78
2023/08/25 08:20:23;;;;;;;12.20;8.25;;;;;;;30.27;46.94;94703.97;4991338;28;20220;-80
2023/08/25 08:22:50;;;;;;;9.07;7.97;;;;;;;30.57;47.75;94704.53;4988759;28;20350;-78
2023/08/25 08:25:17;;;;;;;10.50;7.97;;;;;;;30.90;46.58;94702.88;4991350;28;20206;-78
2023/08/25 08:27:44;;;;;;;8.60;7.07;;;;;;;31.37;44.79;94693.50;4991741;28;20643;-77
2023/08/25 08:30:11;;;;;;;12.88;6.78;;;;;;;30.70;45.67;94703.25;4991108;28;20205;-76
2023/08/25 08:32:39;;;;;;;7.03;5.72;;;;;;;30.64;44.72;94695.88;4992035;28;20297;-77
2023/08/25 08:35:08;;;;;;;8.68;6.05;;;;;;;30.57;43.06;94688.53;4991599;28;20241;-77
2023/08/25 08:37:35;;;;;;;8.50;6.10;;;;;;;30.81;42.48;94690.84;4992025;28;20614;-78
2023/08/25 08:40:04;;;;;;;8.30;6.18;;;;;;;31.09;42.29;94684.97;4991215;28;20328;-80
2023/08/25 08:42:33;;;;;;;6.70;6.00;;;;;;;30.44;43.55;94684.22;4992152;28;20614;-79
2023/08/25 08:45:04;;;;;;;8.48;6.93;;;;;;;30.59;43.87;94686.06;4991448;28;20244;-78
2023/08/25 08:47:32;;;;;;;6.63;5.93;;;;;;;30.65;42.99;94683.44;4991820;28;20212;-78
2023/08/25 08:49:59;;;;;;;7.68;6.80;;;;;;;30.32;43.82;94686.63;4991034;28;20276;-78
2023/08/25 08:52:28;;;;;;;12.73;6.70;;;;;;;31.02;43.51;94678.88;4991190;28;20248;-79
2023/08/25 08:54:57;;;;;;;10.88;6.88;;;;;;;30.73;42.87;94679.16;4991569;28;20320;-78
2023/08/25 08:57:24;;;;;;;8.10;6.18;;;;;;;30.50;42.78;94674.00;4991583;28;20213;-77
2023/08/25 08:59:51;;;;;;;6.72;5.60;;;;;;;30.36;43.82;94678.09;4991301;28;20213;-77
2023/08/25 09:02:20;;;;;;;10.23;6.35;;;;;;;30.08;43.17;94674.28;4990915;28;20220;-77
2023/08/25 09:04:48;;;;;;;7.75;6.25;;;;;;;30.70;42.28;94669.66;4991366;28;20710;-77
2023/08/25 09:07:15;;;;;;;9.43;6.85;;;;;;;30.77;42.17;94674.19;4991290;28;20229;-76
2023/08/25 09:09:45;;;;;;;10.02;6.28;;;;;;;30.93;42.41;94671.19;4991232;28;20209;-78
2023/08/25 09:12:15;;;;;;;9.75;6.70;;;;;;;31.43;41.09;94663.66;4991234;28;20689;-77
2023/08/25 09:14:42;;;;;;;7.97;6.32;;;;;;;32.12;40.33;94658.34;4991056;28;20237;-78
2023/08/25 09:17:14;;;;;;;7.88;5.55;;;;;;;32.13;37.31;94653.50;4988244;28;20213;-78
2023/08/25 09:19:41;;;;;;;7.32;5.65;;;;;;;32.25;37.54;94651.84;4987794;28;20197;-78
2023/08/25 09:22:11;;;;;;;7.95;6.00;;;;;;;32.34;37.19;94647.00;4990248;28;20279;-78
2023/08/25 09:24:38;;;;;;;7.93;5.50;;;;;;;32.36;37.74;94652.94;4988912;28;20653;-78
2023/08/25 09:27:06;;;;;;;8.27;6.28;;;;;;;32.62;37.50;94646.97;4986621;28;20224;-79
2023/08/25 09:29:41;;;;;;;11.80;5.60;;;;;;;32.15;37.53;94640.59;4992418;28;20675;-78
2023/08/25 09:32:14;;;;;;;9.20;6.00;;;;;;;32.27;38.74;94641.69;4989224;28;20205;-79
2023/08/25 09:34:41;;;;;;;9.48;5.53;;;;;;;32.04;38.30;94634.69;4991135;28;20205;-78
2023/08/25 09:37:08;;;;;;;8.32;5.85;;;;;;;32.07;38.79;94635.78;4990501;28;20217;-78
2023/08/25 09:39:43;;;;;;;8.23;6.20;;;;;;;32.05;39.32;94632.66;4989994;28;20209;-79
2023/08/25 09:42:11;;;;;;;8.45;5.13;;;;;;;32.13;38.13;94636.69;4982749;28;20287;-77
2023/08/25 09:44:38;;;;;;;7.43;5.10;;;;;;;32.21;37.84;94626.00;4991166;28;20206;-78
2023/08/25 09:47:06;;;;;;;8.25;5.57;;;;;;;32.30;37.11;94631.56;4991263;28;20268;-78
2023/08/25 09:49:38;;;;;;;6.22;5.43;;;;;;;32.63;37.39;94623.28;4972478;28;20296;-78
2023/08/25 09:52:06;;;;;;;7.38;6.07;;;;;;;32.44;38.29;94622.53;4990147;28;20201;-77
2023/08/25 09:54:34;;;;;;;8.57;6.05;;;;;;;32.70;37.70;94611.72;4992650;28;20274;-77
2023/08/25 09:57:02;;;;;;;7.90;5.80;;;;;;;33.12;37.63;94597.72;4984003;28;20311;-76
2023/08/25 09:59:30;;;;;;;7.68;6.38;;;;;;;33.39;36.94;94603.22;4982620;28;20607;-78
2023/08/25 10:02:10;;;;;;;7.75;5.65;;;;;;;33.53;36.41;94593.31;4978201;28;20213;-77
2023/08/25 10:04:40;;;;;;;5.95;5.35;;;;;;;32.76;36.78;94598.66;4977479;28;20660;-76
2023/08/25 10:07:07;;;;;;;6.18;5.53;;;;;;;32.59;37.68;94597.41;4987207;28;20581;-77
2023/08/25 10:09:37;;;;;;;7.70;5.20;;;;;;;32.91;35.61;94588.31;4977411;28;20260;-80
2023/08/25 10:12:18;;;;;;;7.03;5.85;;;;;;;32.33;36.61;94603.38;4981422;28;20221;-77
2023/08/25 10:14:51;;;;;;;6.72;5.20;;;;;;;32.49;37.33;94586.22;4988186;28;20303;-76
2023/08/25 10:17:19;;;;;;;9.02;5.55;;;;;;;33.08;36.31;94583.84;4988652;28;20296;-77
2023/08/25 10:19:53;;;;;;;6.25;4.97;;;;;;;32.15;36.43;94587.31;4987169;28;21073;-76
2023/08/25 10:22:22;;;;;;;7.80;5.03;;;;;;;31.46;37.19;94589.91;4988242;28;20570;-80
2023/08/25 10:24:49;;;;;;;8.02;5.03;;;;;;;32.14;36.85;94582.19;4987798;28;20197;-77
2023/08/25 10:27:18;;;;;;;6.65;4.78;;;;;;;32.19;36.45;94584.38;4987267;28;20204;-77
2023/08/25 10:29:46;;;;;;;7.47;5.32;;;;;;;32.54;35.78;94581.97;4986260;28;20205;-77
2023/08/25 10:32:13;;;;;;;7.13;4.68;;;;;;;32.15;35.12;94573.31;4990979;28;20205;-75
2023/08/25 10:34:45;;;;;;;10.38;4.90;;;;;;;31.91;35.43;94586.41;4990642;28;20261;-76
2023/08/25 10:37:14;;;;;;;8.43;4.80;;;;;;;31.93;36.37;94578.31;4992733;28;20705;-78
2023/08/25 10:39:56;;;;;;;7.45;5.32;;;;;;;31.97;36.08;94580.97;4993969;28;20357;-77
2023/08/25 10:42:25;;;;;;;7.30;5.03;;;;;;;32.27;35.56;94585.63;4995145;28;20215;-77
2023/08/25 10:44:57;;;;;;;7.80;5.38;;;;;;;32.70;35.67;94575.25;4990305;28;20225;-78
2023/08/25 10:47:24;;;;;;;10.63;5.95;;;;;;;33.04;34.99;94571.25;4994526;28;20220;-77
2023/08/25 10:49:56;;;;;;;7.10;4.80;;;;;;;33.53;33.90;94568.03;4993241;28;20320;-77
2023/08/25 10:52:23;;;;;;;8.38;6.07;;;;;;;33.53;34.01;94560.38;4995530;28;20212;-77
2023/08/25 10:54:53;;;;;;;5.95;5.35;;;;;;;33.49;34.05;94564.59;4995625;28;20229;-80
2023/08/25 10:57:20;;;;;;;8.25;5.18;;;;;;;33.04;34.81;94562.81;4993491;28;20716;-78
2023/08/25 10:59:50;;;;;;;6.28;5.20;;;;;;;32.83;35.02;94562.59;4992375;28;20581;-79
2023/08/25 11:02:34;;;;;;;8.63;6.32;;;;;;;32.90;35.17;94564.28;4991182;28;20635;-79
2023/08/25 11:05:43;;;;;;;6.82;5.15;;;;;;;32.62;35.28;94566.38;4994448;28;20202;-81
2023/08/25 11:08:28;;;;;;;6.20;4.38;;;;;;;32.73;34.15;94560.28;4993189;28;20216;-75
2023/08/25 11:11:12;;;;;;;7.88;5.22;;;;;;;32.70;34.48;94552.78;4992736;28;20240;-76
2023/08/25 11:13:40;;;;;;;6.95;4.70;;;;;;;32.89;34.47;94545.88;4991968;28;20296;-76
2023/08/25 11:16:14;;;;;;;8.32;5.10;;;;;;;33.12;34.33;94547.94;4972875;28;20264;-77
2023/08/25 11:18:43;;;;;;;9.10;5.50;;;;;;;33.33;34.29;94551.78;4991931;28;20233;-81
2023/08/25 11:21:10;;;;;;;6.10;5.22;;;;;;;33.40;33.77;94550.63;4999108;28;20205;-79
2023/08/25 11:23:39;;;;;;;6.65;5.18;;;;;;;32.80;34.61;94551.56;4995410;28;20214;-82
2023/08/25 11:26:06;;;;;;;6.68;5.28;;;;;;;32.56;34.28;94557.03;4994164;28;20251;-79
2023/08/25 11:28:33;;;;;;;7.45;5.10;;;;;;;33.00;34.06;94534.91;4994080;28;20206;-79